sensor_id;sensor_type;location;lat;lon;timestamp;pressure;altitude;pressure_sealevel;temperature;humidity
49459;BME280;35354;51.296;16.924;2023-02-02T00:01:48;98844.53;;;3.86;100.00
49459;BME280;35354;51.296;16.924;2023-02-02T00:04:19;98826.41;;;3.89;100.00
49459;BME280;35354;51.296;16.924;2023-02-02T00:06:45;98823.19;;;3.82;100.00
49459;BME280;35354;51.296;16.924;2023-02-02T00:09:12;98827.25;;;3.89;100.00
49459;BME280;35354;51.296;16.924;2023-02-02T00:11:39;98795.22;;;3.71;100.00
49459;BME280;35354;51.296;16.924;2023-02-02T00:14:04;98798.78;;;3.67;100.00
49459;BME280;35354;51.296;16.924;2023-02-02T00:18:57;98801.97;;;3.74;100.00
49459;BME280;35354;51.296;16.924;2023-02-02T00:21:23;98829.63;;;3.95;100.00
49459;BME280;35354;51.296;16.924;2023-02-02T00:23:49;98819.63;;;3.86;100.00
49459;BME280;35354;51.296;16.924;2023-02-02T00:26:16;98831.75;;;3.83;100.00
49459;BME280;35354;51.296;16.924;2023-02-02T00:28:41;98825.84;;;3.79;100.00
49459;BME280;35354;51.296;16.924;2023-02-02T00:31:07;98829.88;;;3.88;100.00
49459;BME280;35354;51.296;16.924;2023-02-02T00:33:32;98799.41;;;3.74;100.00
49459;BME280;35354;51.296;16.924;2023-02-02T00:35:57;98819.69;;;3.85;100.00
49459;BME280;35354;51.296;16.924;2023-02-02T00:38:23;98796.69;;;3.79;100.00
49459;BME280;35354;51.296;16.924;2023-02-02T00:40:48;98819.72;;;3.83;100.00
49459;BME280;35354;51.296;16.924;2023-02-02T00:43:14;98828.75;;;3.96;100.00
49459;BME280;35354;51.296;16.924;2023-02-02T00:45:40;98830.44;;;3.96;100.00
49459;BME280;35354;51.296;16.924;2023-02-02T00:48:05;98813.25;;;3.71;100.00
49459;BME280;35354;51.296;16.924;2023-02-02T00:50:31;98836.72;;;3.89;100.00
49459;BME280;35354;51.296;16.924;2023-02-02T00:52:57;98783.41;;;3.64;100.00
49459;BME280;35354;51.296;16.924;2023-02-02T00:55:23;98791.91;;;3.68;100.00
49459;BME280;35354;51.296;16.924;2023-02-02T00:57:49;98832.16;;;3.97;100.00
49459;BME280;35354;51.296;16.924;2023-02-02T01:00:16;98828.59;;;4.01;100.00
49459;BME280;35354;51.296;16.924;2023-02-02T01:02:42;98829.38;;;4.03;100.00
49459;BME280;35354;51.296;16.924;2023-02-02T01:05:09;98833.03;;;3.96;100.00
49459;BME280;35354;51.296;16.924;2023-02-02T01:07:35;98833.00;;;3.97;100.00
49459;BME280;35354;51.296;16.924;2023-02-02T01:10:00;98832.19;;;3.95;100.00
49459;BME280;35354;51.296;16.924;2023-02-02T01:12:26;98825.28;;;3.97;100.00
49459;BME280;35354;51.296;16.924;2023-02-02T01:14:51;98808.47;;;3.86;100.00
49459;BME280;35354;51.296;16.924;2023-02-02T01:17:16;98809.22;;;3.89;100.00
49459;BME280;35354;51.296;16.924;2023-02-02T01:19:42;98806.81;;;3.85;100.00
49459;BME280;35354;51.296;16.924;2023-02-02T01:22:08;98802.47;;;3.85;100.00
49459;BME280;35354;51.296;16.924;2023-02-02T01:24:34;98809.97;;;3.93;100.00
49459;BME280;35354;51.296;16.924;2023-02-02T01:26:59;98824.53;;;3.94;100.00
49459;BME280;35354;51.296;16.924;2023-02-02T01:29:25;98794.22;;;3.75;100.00
49459;BME280;35354;51.296;16.924;2023-02-02T01:31:50;98810.97;;;3.89;100.00
49459;BME280;35354;51.296;16.924;2023-02-02T01:34:15;98789.59;;;3.85;100.00
49459;BME280;35354;51.296;16.924;2023-02-02T01:36:41;98782.03;;;3.81;100.00
49459;BME280;35354;51.296;16.924;2023-02-02T01:39:06;98798.91;;;3.89;100.00
49459;BME280;35354;51.296;16.924;2023-02-02T01:41:31;98801.75;;;3.82;100.00
49459;BME280;35354;51.296;16.924;2023-02-02T01:43:59;98780.28;;;3.81;100.00
49459;BME280;35354;51.296;16.924;2023-02-02T01:46:35;98803.47;;;3.81;100.00
49459;BME280;35354;51.296;16.924;2023-02-02T01:49:13;98804.38;;;3.80;100.00
49459;BME280;35354;51.296;16.924;2023-02-02T01:51:50;98796.50;;;3.85;100.00
49459;BME280;35354;51.296;16.924;2023-02-02T01:54:21;98804.75;;;3.94;100.00
49459;BME280;35354;51.296;16.924;2023-02-02T01:56:53;98797.97;;;3.92;100.00
49459;BME280;35354;51.296;16.924;2023-02-02T01:59:20;98788.75;;;3.85;100.00
49459;BME280;35354;51.296;16.924;2023-02-02T02:01:47;98789.66;;;3.84;100.00
49459;BME280;35354;51.296;16.924;2023-02-02T02:04:13;98773.63;;;3.75;100.00
49459;BME280;35354;51.296;16.924;2023-02-02T02:06:39;98780.13;;;3.86;100.00
49459;BME280;35354;51.296;16.924;2023-02-02T02:09:06;98775.09;;;3.83;100.00
49459;BME280;35354;51.296;16.924;2023-02-02T02:11:33;98786.22;;;3.83;100.00
49459;BME280;35354;51.296;16.924;2023-02-02T02:14:01;98778.63;;;3.80;100.00
49459;BME280;35354;51.296;16.924;2023-02-02T02:22:15;98784.56;;;3.56;100.00
49459;BME280;35354;51.296;16.924;2023-02-02T02:25:37;98807.28;;;3.69;100.00
49459;BME280;35354;51.296;16.924;2023-02-02T02:34:07;98783.19;;;3.72;100.00
49459;BME280;35354;51.296;16.924;2023-02-02T02:39:24;98798.75;;;3.94;100.00
49459;BME280;35354;51.296;16.924;2023-02-02T02:41:56;98800.44;;;3.95;100.00
49459;BME280;35354;51.296;16.924;2023-02-02T02:44:23;98785.97;;;3.91;100.00
49459;BME280;35354;51.296;16.924;2023-02-02T02:46:51;98762.50;;;3.73;100.00
49459;BME280;35354;51.296;16.924;2023-02-02T02:49:17;98789.22;;;3.96;99.92
49459;BME280;35354;51.296;16.924;2023-02-02T02:51:50;98783.41;;;3.91;99.37
49459;BME280;35354;51.296;16.924;2023-02-02T02:54:34;98757.69;;;3.89;99.15
49459;BME280;35354;51.296;16.924;2023-02-02T02:59:59;98771.91;;;4.01;98.79
49459;BME280;35354;51.296;16.924;2023-02-02T03:07:56;98735.13;;;3.96;98.28
49459;BME280;35354;51.296;16.924;2023-02-02T03:10:28;98749.16;;;4.12;98.46
49459;BME280;35354;51.296;16.924;2023-02-02T03:12:55;98755.72;;;4.21;98.11
49459;BME280;35354;51.296;16.924;2023-02-02T03:15:20;98742.97;;;4.18;97.45
49459;BME280;35354;51.296;16.924;2023-02-02T03:17:47;98749.47;;;4.05;97.55
49459;BME280;35354;51.296;16.924;2023-02-02T03:20:14;98730.69;;;4.01;98.25
49459;BME280;35354;51.296;16.924;2023-02-02T03:22:40;98739.00;;;4.09;98.25
49459;BME280;35354;51.296;16.924;2023-02-02T03:25:06;98710.34;;;3.93;98.16
49459;BME280;35354;51.296;16.924;2023-02-02T03:27:32;98697.63;;;3.89;97.83
49459;BME280;35354;51.296;16.924;2023-02-02T03:29:57;98722.63;;;4.10;97.33
49459;BME280;35354;51.296;16.924;2023-02-02T03:32:23;98733.72;;;4.12;97.41
49459;BME280;35354;51.296;16.924;2023-02-02T03:34:48;98703.19;;;4.02;97.43
49459;BME280;35354;51.296;16.924;2023-02-02T03:37:14;98730.94;;;4.18;97.42
49459;BME280;35354;51.296;16.924;2023-02-02T03:39:39;98709.91;;;4.06;96.73
49459;BME280;35354;51.296;16.924;2023-02-02T03:42:04;98719.81;;;4.16;96.88
49459;BME280;35354;51.296;16.924;2023-02-02T03:44:30;98685.31;;;3.97;96.87
49459;BME280;35354;51.296;16.924;2023-02-02T03:46:55;98665.03;;;3.88;96.98
49459;BME280;35354;51.296;16.924;2023-02-02T03:49:20;98688.38;;;4.07;97.09
49459;BME280;35354;51.296;16.924;2023-02-02T03:51:46;98703.31;;;4.22;97.55
49459;BME280;35354;51.296;16.924;2023-02-02T03:54:11;98716.13;;;4.23;98.32
49459;BME280;35354;51.296;16.924;2023-02-02T03:56:37;98692.78;;;4.05;97.92
49459;BME280;35354;51.296;16.924;2023-02-02T03:59:02;98685.75;;;3.83;98.06
49459;BME280;35354;51.296;16.924;2023-02-02T04:01:28;98680.41;;;3.89;98.08
49459;BME280;35354;51.296;16.924;2023-02-02T04:03:54;98710.75;;;4.06;97.86
49459;BME280;35354;51.296;16.924;2023-02-02T04:06:20;98675.94;;;3.94;97.71
49459;BME280;35354;51.296;16.924;2023-02-02T04:08:45;98695.94;;;4.11;97.61
49459;BME280;35354;51.296;16.924;2023-02-02T04:11:11;98696.13;;;4.07;96.79
49459;BME280;35354;51.296;16.924;2023-02-02T04:13:37;98679.88;;;4.05;96.63
49459;BME280;35354;51.296;16.924;2023-02-02T04:16:02;98691.03;;;4.05;96.93
49459;BME280;35354;51.296;16.924;2023-02-02T04:18:28;98695.78;;;4.16;96.48
49459;BME280;35354;51.296;16.924;2023-02-02T04:21:00;98676.50;;;4.03;96.25
49459;BME280;35354;51.296;16.924;2023-02-02T04:23:27;98683.69;;;4.18;96.28
49459;BME280;35354;51.296;16.924;2023-02-02T04:25:53;98689.53;;;4.23;96.08
49459;BME280;35354;51.296;16.924;2023-02-02T04:28:19;98665.59;;;4.19;95.66
49459;BME280;35354;51.296;16.924;2023-02-02T04:30:44;98656.53;;;4.09;95.33
49459;BME280;35354;51.296;16.924;2023-02-02T04:33:10;98679.28;;;4.21;95.71
49459;BME280;35354;51.296;16.924;2023-02-02T04:35:35;98679.94;;;4.03;95.56
49459;BME280;35354;51.296;16.924;2023-02-02T04:38:00;98683.00;;;4.13;96.13
49459;BME280;35354;51.296;16.924;2023-02-02T04:40:26;98674.16;;;4.20;95.63
49459;BME280;35354;51.296;16.924;2023-02-02T04:42:51;98673.44;;;4.16;95.62
49459;BME280;35354;51.296;16.924;2023-02-02T04:45:16;98663.25;;;4.13;95.86
49459;BME280;35354;51.296;16.924;2023-02-02T04:47:42;98654.16;;;4.03;95.65
49459;BME280;35354;51.296;16.924;2023-02-02T04:50:08;98629.50;;;3.96;95.13
49459;BME280;35354;51.296;16.924;2023-02-02T04:52:33;98644.75;;;4.02;94.74
49459;BME280;35354;51.296;16.924;2023-02-02T04:54:59;98684.88;;;4.33;95.06
49459;BME280;35354;51.296;16.924;2023-02-02T04:57:25;98654.63;;;4.14;94.43
49459;BME280;35354;51.296;16.924;2023-02-02T04:59:50;98640.38;;;4.04;94.77
49459;BME280;35354;51.296;16.924;2023-02-02T05:02:16;98680.69;;;4.30;94.28
49459;BME280;35354;51.296;16.924;2023-02-02T05:04:41;98680.78;;;4.27;94.14
49459;BME280;35354;51.296;16.924;2023-02-02T05:07:06;98652.97;;;4.12;94.01
49459;BME280;35354;51.296;16.924;2023-02-02T05:09:32;98663.28;;;4.12;94.61
49459;BME280;35354;51.296;16.924;2023-02-02T05:11:57;98654.91;;;4.07;94.96
49459;BME280;35354;51.296;16.924;2023-02-02T05:14:22;98670.69;;;4.21;94.81
49459;BME280;35354;51.296;16.924;2023-02-02T05:16:48;98669.91;;;4.19;95.60
49459;BME280;35354;51.296;16.924;2023-02-02T05:19:14;98686.78;;;4.28;95.47
49459;BME280;35354;51.296;16.924;2023-02-02T05:21:42;98652.22;;;4.10;95.22
49459;BME280;35354;51.296;16.924;2023-02-02T05:24:09;98678.66;;;4.15;95.61
49459;BME280;35354;51.296;16.924;2023-02-02T05:26:34;98655.56;;;4.12;96.09
49459;BME280;35354;51.296;16.924;2023-02-02T05:28:59;98675.28;;;4.13;96.40
49459;BME280;35354;51.296;16.924;2023-02-02T05:31:25;98688.63;;;4.24;97.25
49459;BME280;35354;51.296;16.924;2023-02-02T05:33:50;98680.97;;;4.22;97.58
49459;BME280;35354;51.296;16.924;2023-02-02T05:36:15;98677.84;;;4.13;98.06
49459;BME280;35354;51.296;16.924;2023-02-02T05:38:41;98704.50;;;4.13;97.84
49459;BME280;35354;51.296;16.924;2023-02-02T05:41:06;98699.03;;;4.21;98.54
49459;BME280;35354;51.296;16.924;2023-02-02T05:43:32;98700.44;;;4.06;98.31
49459;BME280;35354;51.296;16.924;2023-02-02T05:45:58;98714.63;;;4.18;98.56
49459;BME280;35354;51.296;16.924;2023-02-02T05:48:23;98707.94;;;4.12;99.16
49459;BME280;35354;51.296;16.924;2023-02-02T05:51:05;98696.84;;;4.10;100.00
49459;BME280;35354;51.296;16.924;2023-02-02T05:53:32;98735.53;;;4.09;100.00
49459;BME280;35354;51.296;16.924;2023-02-02T05:55:58;98697.56;;;3.90;100.00
49459;BME280;35354;51.296;16.924;2023-02-02T05:58:23;98707.38;;;3.79;100.00
49459;BME280;35354;51.296;16.924;2023-02-02T06:00:48;98716.16;;;3.98;100.00
49459;BME280;35354;51.296;16.924;2023-02-02T06:03:14;98734.34;;;3.94;100.00
49459;BME280;35354;51.296;16.924;2023-02-02T06:05:39;98740.34;;;3.94;100.00
49459;BME280;35354;51.296;16.924;2023-02-02T06:08:05;98737.78;;;3.94;100.00
49459;BME280;35354;51.296;16.924;2023-02-02T06:10:30;98746.97;;;4.02;100.00
49459;BME280;35354;51.296;16.924;2023-02-02T06:12:56;98733.41;;;3.71;100.00
49459;BME280;35354;51.296;16.924;2023-02-02T06:15:22;98745.53;;;3.68;100.00
49459;BME280;35354;51.296;16.924;2023-02-02T06:17:47;98751.88;;;3.84;100.00
49459;BME280;35354;51.296;16.924;2023-02-02T06:20:13;98717.81;;;3.76;100.00
49459;BME280;35354;51.296;16.924;2023-02-02T06:22:38;98751.03;;;3.84;100.00
49459;BME280;35354;51.296;16.924;2023-02-02T06:25:04;98755.97;;;3.90;100.00
49459;BME280;35354;51.296;16.924;2023-02-02T06:27:30;98755.44;;;3.80;100.00
49459;BME280;35354;51.296;16.924;2023-02-02T06:29:55;98756.97;;;3.86;100.00
49459;BME280;35354;51.296;16.924;2023-02-02T06:32:20;98733.00;;;3.57;100.00
49459;BME280;35354;51.296;16.924;2023-02-02T06:34:46;98736.00;;;3.70;100.00
49459;BME280;35354;51.296;16.924;2023-02-02T06:37:11;98762.25;;;3.81;100.00
49459;BME280;35354;51.296;16.924;2023-02-02T06:39:36;98747.97;;;3.72;100.00
49459;BME280;35354;51.296;16.924;2023-02-02T06:42:02;98763.00;;;3.85;100.00
49459;BME280;35354;51.296;16.924;2023-02-02T06:44:27;98762.31;;;3.80;100.00
49459;BME280;35354;51.296;16.924;2023-02-02T06:46:53;98784.81;;;3.99;100.00
49459;BME280;35354;51.296;16.924;2023-02-02T06:49:18;98748.84;;;3.71;100.00
49459;BME280;35354;51.296;16.924;2023-02-02T06:51:46;98768.19;;;3.83;100.00
49459;BME280;35354;51.296;16.924;2023-02-02T06:54:12;98789.38;;;3.91;100.00
49459;BME280;35354;51.296;16.924;2023-02-02T06:56:37;98774.84;;;3.90;100.00
49459;BME280;35354;51.296;16.924;2023-02-02T06:59:02;98775.97;;;3.82;100.00
49459;BME280;35354;51.296;16.924;2023-02-02T07:01:28;98751.53;;;3.68;100.00
49459;BME280;35354;51.296;16.924;2023-02-02T07:03:53;98807.41;;;3.91;100.00
49459;BME280;35354;51.296;16.924;2023-02-02T07:06:21;98813.22;;;3.98;100.00
49459;BME280;35354;51.296;16.924;2023-02-02T07:08:48;98799.50;;;3.97;100.00
49459;BME280;35354;51.296;16.924;2023-02-02T07:11:15;98813.22;;;3.98;100.00
49459;BME280;35354;51.296;16.924;2023-02-02T07:13:41;98804.56;;;4.00;100.00
49459;BME280;35354;51.296;16.924;2023-02-02T07:16:06;98787.47;;;3.98;100.00
49459;BME280;35354;51.296;16.924;2023-02-02T07:18:33;98814.88;;;4.00;100.00
49459;BME280;35354;51.296;16.924;2023-02-02T07:21:01;98824.75;;;4.13;100.00
49459;BME280;35354;51.296;16.924;2023-02-02T07:23:28;98791.25;;;3.88;100.00
49459;BME280;35354;51.296;16.924;2023-02-02T07:28:26;98825.03;;;4.05;100.00
49459;BME280;35354;51.296;16.924;2023-02-02T07:30:52;98813.56;;;3.87;100.00
49459;BME280;35354;51.296;16.924;2023-02-02T07:33:17;98840.72;;;3.97;99.45
49459;BME280;35354;51.296;16.924;2023-02-02T07:35:42;98841.72;;;3.93;100.00
49459;BME280;35354;51.296;16.924;2023-02-02T07:38:08;98877.00;;;4.18;99.78
49459;BME280;35354;51.296;16.924;2023-02-02T07:40:33;98888.06;;;4.21;100.00
49459;BME280;35354;51.296;16.924;2023-02-02T07:42:58;98886.47;;;4.17;100.00
49459;BME280;35354;51.296;16.924;2023-02-02T07:45:25;98871.09;;;4.14;100.00
49459;BME280;35354;51.296;16.924;2023-02-02T07:47:57;98895.91;;;4.17;100.00
49459;BME280;35354;51.296;16.924;2023-02-02T07:50:23;98912.69;;;4.30;100.00
49459;BME280;35354;51.296;16.924;2023-02-02T07:52:50;98895.81;;;4.20;100.00
49459;BME280;35354;51.296;16.924;2023-02-02T07:55:16;98906.03;;;4.23;100.00
49459;BME280;35354;51.296;16.924;2023-02-02T07:57:41;98928.97;;;4.31;100.00
49459;BME280;35354;51.296;16.924;2023-02-02T08:00:06;98916.34;;;4.23;100.00
49459;BME280;35354;51.296;16.924;2023-02-02T08:02:33;98930.09;;;4.48;100.00
49459;BME280;35354;51.296;16.924;2023-02-02T08:04:58;98950.06;;;4.68;100.00
49459;BME280;35354;51.296;16.924;2023-02-02T08:07:24;98962.00;;;4.71;100.00
49459;BME280;35354;51.296;16.924;2023-02-02T08:09:50;98956.38;;;4.60;99.46
49459;BME280;35354;51.296;16.924;2023-02-02T08:12:16;98953.84;;;4.58;98.79
49459;BME280;35354;51.296;16.924;2023-02-02T08:14:41;98950.34;;;4.59;98.24
49459;BME280;35354;51.296;16.924;2023-02-02T08:17:06;98934.53;;;4.45;97.22
49459;BME280;35354;51.296;16.924;2023-02-02T08:19:32;98965.56;;;4.42;97.41
49459;BME280;35354;51.296;16.924;2023-02-02T08:21:57;98945.41;;;4.00;98.49
49459;BME280;35354;51.296;16.924;2023-02-02T08:24:22;98985.19;;;4.19;98.63
49459;BME280;35354;51.296;16.924;2023-02-02T08:26:48;98956.75;;;3.94;97.41
49459;BME280;35354;51.296;16.924;2023-02-02T08:29:13;98976.22;;;4.05;98.31
49459;BME280;35354;51.296;16.924;2023-02-02T08:31:42;98977.78;;;4.09;98.73
49459;BME280;35354;51.296;16.924;2023-02-02T08:34:08;98976.38;;;3.98;99.63
49459;BME280;35354;51.296;16.924;2023-02-02T08:36:35;98990.03;;;4.02;99.94
49459;BME280;35354;51.296;16.924;2023-02-02T08:39:02;99003.94;;;3.96;100.00
49459;BME280;35354;51.296;16.924;2023-02-02T08:41:28;98978.19;;;3.96;100.00
49459;BME280;35354;51.296;16.924;2023-02-02T08:43:54;98980.63;;;3.99;99.79
49459;BME280;35354;51.296;16.924;2023-02-02T08:46:19;98988.63;;;3.92;100.00
49459;BME280;35354;51.296;16.924;2023-02-02T08:48:45;98989.97;;;4.04;100.00
49459;BME280;35354;51.296;16.924;2023-02-02T08:51:13;99006.38;;;4.01;100.00
49459;BME280;35354;51.296;16.924;2023-02-02T08:53:40;98994.78;;;3.86;100.00
49459;BME280;35354;51.296;16.924;2023-02-02T08:56:16;98989.91;;;3.77;100.00
49459;BME280;35354;51.296;16.924;2023-02-02T08:58:47;98982.19;;;3.77;100.00
49459;BME280;35354;51.296;16.924;2023-02-02T09:01:16;99021.91;;;3.98;100.00
49459;BME280;35354;51.296;16.924;2023-02-02T09:03:42;99026.38;;;3.93;100.00
49459;BME280;35354;51.296;16.924;2023-02-02T09:06:10;99014.69;;;3.81;100.00
49459;BME280;35354;51.296;16.924;2023-02-02T09:08:36;99046.94;;;3.94;100.00
49459;BME280;35354;51.296;16.924;2023-02-02T09:11:10;99028.97;;;3.91;100.00
49459;BME280;35354;51.296;16.924;2023-02-02T09:13:37;99054.03;;;3.86;100.00
49459;BME280;35354;51.296;16.924;2023-02-02T09:16:04;99038.28;;;3.67;100.00
49459;BME280;35354;51.296;16.924;2023-02-02T09:18:30;99031.19;;;3.74;100.00
49459;BME280;35354;51.296;16.924;2023-02-02T09:21:00;99042.09;;;3.84;100.00
49459;BME280;35354;51.296;16.924;2023-02-02T09:23:28;99067.38;;;4.00;100.00
49459;BME280;35354;51.296;16.924;2023-02-02T09:25:54;99053.75;;;3.97;100.00
49459;BME280;35354;51.296;16.924;2023-02-02T09:28:19;99073.66;;;4.20;100.00
49459;BME280;35354;51.296;16.924;2023-02-02T09:30:45;99060.34;;;4.06;100.00
49459;BME280;35354;51.296;16.924;2023-02-02T09:33:10;99068.72;;;4.12;98.47
49459;BME280;35354;51.296;16.924;2023-02-02T09:35:35;99072.97;;;4.15;98.37
49459;BME280;35354;51.296;16.924;2023-02-02T09:38:01;99081.84;;;4.34;97.63
49459;BME280;35354;51.296;16.924;2023-02-02T09:40:26;99071.84;;;4.23;97.34
49459;BME280;35354;51.296;16.924;2023-02-02T09:45:58;99102.63;;;4.28;97.97
49459;BME280;35354;51.296;16.924;2023-02-02T09:48:44;99063.16;;;3.98;97.97
49459;BME280;35354;51.296;16.924;2023-02-02T09:51:18;99099.50;;;4.17;96.97
49459;BME280;35354;51.296;16.924;2023-02-02T09:53:56;99115.91;;;4.44;95.07
49459;BME280;35354;51.296;16.924;2023-02-02T09:56:39;99126.03;;;4.50;94.11
49459;BME280;35354;51.296;16.924;2023-02-02T09:59:07;99124.34;;;4.49;95.28
49459;BME280;35354;51.296;16.924;2023-02-02T10:01:39;99103.53;;;4.27;94.68
49459;BME280;35354;51.296;16.924;2023-02-02T10:04:15;99110.19;;;4.34;95.13
49459;BME280;35354;51.296;16.924;2023-02-02T10:06:51;99135.75;;;4.70;94.00
49459;BME280;35354;51.296;16.924;2023-02-02T10:16:45;99115.31;;;4.90;91.78
49459;BME280;35354;51.296;16.924;2023-02-02T10:19:13;99116.84;;;4.96;91.00
49459;BME280;35354;51.296;16.924;2023-02-02T10:22:01;99159.59;;;5.05;91.04
49459;BME280;35354;51.296;16.924;2023-02-02T10:24:30;99153.94;;;5.20;90.29
49459;BME280;35354;51.296;16.924;2023-02-02T10:27:03;99152.50;;;5.11;89.67
49459;BME280;35354;51.296;16.924;2023-02-02T10:32:21;99150.53;;;5.19;90.18
49459;BME280;35354;51.296;16.924;2023-02-02T10:37:41;99131.16;;;5.06;89.64
49459;BME280;35354;51.296;16.924;2023-02-02T10:40:45;99159.59;;;5.05;90.00
49459;BME280;35354;51.296;16.924;2023-02-02T10:46:23;99173.00;;;5.42;89.91
49459;BME280;35354;51.296;16.924;2023-02-02T10:48:58;99176.63;;;5.37;89.10
49459;BME280;35354;51.296;16.924;2023-02-02T10:51:26;99172.84;;;5.47;89.84
49459;BME280;35354;51.296;16.924;2023-02-02T10:53:53;99161.47;;;5.53;89.40
49459;BME280;35354;51.296;16.924;2023-02-02T10:59:05;99147.91;;;5.46;89.02
49459;BME280;35354;51.296;16.924;2023-02-02T11:01:31;99176.06;;;5.54;90.12
49459;BME280;35354;51.296;16.924;2023-02-02T11:03:57;99175.81;;;5.61;89.01
49459;BME280;35354;51.296;16.924;2023-02-02T11:06:41;99187.03;;;5.60;89.32
49459;BME280;35354;51.296;16.924;2023-02-02T11:09:31;99192.72;;;5.45;90.69
49459;BME280;35354;51.296;16.924;2023-02-02T11:12:03;99163.19;;;5.27;90.81
49459;BME280;35354;51.296;16.924;2023-02-02T11:17:35;99213.06;;;5.54;91.35
49459;BME280;35354;51.296;16.924;2023-02-02T11:20:01;99225.09;;;5.55;91.06
49459;BME280;35354;51.296;16.924;2023-02-02T11:22:30;99200.03;;;5.32;89.86
49459;BME280;35354;51.296;16.924;2023-02-02T11:25:01;99212.94;;;5.32;90.00
49459;BME280;35354;51.296;16.924;2023-02-02T11:27:32;99213.03;;;5.29;90.87
49459;BME280;35354;51.296;16.924;2023-02-02T11:30:10;99249.47;;;5.46;88.89
49459;BME280;35354;51.296;16.924;2023-02-02T11:32:36;99240.50;;;5.32;89.53
49459;BME280;35354;51.296;16.924;2023-02-02T11:38:13;99226.16;;;4.95;90.20
49459;BME280;35354;51.296;16.924;2023-02-02T11:40:43;99252.19;;;5.15;90.31
49459;BME280;35354;51.296;16.924;2023-02-02T11:45:53;99259.84;;;5.18;92.46
49459;BME280;35354;51.296;16.924;2023-02-02T11:48:22;99257.13;;;5.23;91.49
49459;BME280;35354;51.296;16.924;2023-02-02T11:50:53;99241.16;;;5.10;91.02
49459;BME280;35354;51.296;16.924;2023-02-02T11:53:41;99223.22;;;4.78;90.71
49459;BME280;35354;51.296;16.924;2023-02-02T11:56:17;99232.34;;;4.60;92.12
49459;BME280;35354;51.296;16.924;2023-02-02T11:58:45;99274.84;;;4.76;91.76
49459;BME280;35354;51.296;16.924;2023-02-02T12:04:00;99291.72;;;4.58;91.53
49459;BME280;35354;51.296;16.924;2023-02-02T12:09:00;99289.72;;;4.37;93.32
49459;BME280;35354;51.296;16.924;2023-02-02T12:16:55;99285.53;;;4.33;100.00
49459;BME280;35354;51.296;16.924;2023-02-02T12:24:30;99287.66;;;4.18;100.00
49459;BME280;35354;51.296;16.924;2023-02-02T12:29:49;99312.28;;;4.29;100.00
49459;BME280;35354;51.296;16.924;2023-02-02T12:32:19;99322.53;;;4.32;100.00
49459;BME280;35354;51.296;16.924;2023-02-02T12:37:42;99322.72;;;4.24;100.00
49459;BME280;35354;51.296;16.924;2023-02-02T12:53:56;99352.91;;;3.85;100.00
49459;BME280;35354;51.296;16.924;2023-02-02T12:56:33;99322.66;;;3.57;100.00
49459;BME280;35354;51.296;16.924;2023-02-02T13:01:59;99378.72;;;3.44;100.00
49459;BME280;35354;51.296;16.924;2023-02-02T13:10:08;99382.25;;;2.98;100.00
49459;BME280;35354;51.296;16.924;2023-02-02T13:12:41;99368.78;;;2.87;100.00
49459;BME280;35354;51.296;16.924;2023-02-02T13:15:12;99387.75;;;2.82;100.00
49459;BME280;35354;51.296;16.924;2023-02-02T13:17:42;99362.47;;;2.59;100.00
49459;BME280;35354;51.296;16.924;2023-02-02T13:23:10;99370.38;;;2.49;100.00
49459;BME280;35354;51.296;16.924;2023-02-02T13:25:45;99373.97;;;2.39;100.00
49459;BME280;35354;51.296;16.924;2023-02-02T13:28:34;99414.91;;;2.48;100.00
49459;BME280;35354;51.296;16.924;2023-02-02T13:31:02;99392.25;;;2.24;100.00
49459;BME280;35354;51.296;16.924;2023-02-02T13:33:31;99419.59;;;2.27;100.00
49459;BME280;35354;51.296;16.924;2023-02-02T13:36:02;99379.56;;;2.13;100.00
49459;BME280;35354;51.296;16.924;2023-02-02T13:38:30;99423.78;;;2.32;100.00
49459;BME280;35354;51.296;16.924;2023-02-02T13:40:59;99399.16;;;2.20;100.00
49459;BME280;35354;51.296;16.924;2023-02-02T13:43:48;99432.34;;;2.33;100.00
49459;BME280;35354;51.296;16.924;2023-02-02T13:51:42;99437.16;;;2.51;100.00
49459;BME280;35354;51.296;16.924;2023-02-02T13:59:53;99445.25;;;3.22;100.00
49459;BME280;35354;51.296;16.924;2023-02-02T14:02:45;99413.41;;;3.28;100.00
49459;BME280;35354;51.296;16.924;2023-02-02T14:05:29;99408.94;;;3.36;100.00
49459;BME280;35354;51.296;16.924;2023-02-02T14:08:01;99443.53;;;3.65;100.00
49459;BME280;35354;51.296;16.924;2023-02-02T14:10:37;99437.69;;;3.57;100.00
49459;BME280;35354;51.296;16.924;2023-02-02T14:15:58;99462.59;;;3.95;100.00
49459;BME280;35354;51.296;16.924;2023-02-02T14:24:17;99475.66;;;3.87;100.00
49459;BME280;35354;51.296;16.924;2023-02-02T14:26:59;99487.84;;;3.79;100.00
49459;BME280;35354;51.296;16.924;2023-02-02T14:34:44;99473.09;;;3.45;100.00
49459;BME280;35354;51.296;16.924;2023-02-02T14:39:46;99501.66;;;3.35;100.00
49459;BME280;35354;51.296;16.924;2023-02-02T14:42:25;99506.00;;;3.31;100.00
49459;BME280;35354;51.296;16.924;2023-02-02T14:45:33;99516.25;;;3.34;100.00
49459;BME280;35354;51.296;16.924;2023-02-02T14:48:00;99507.13;;;3.18;100.00
49459;BME280;35354;51.296;16.924;2023-02-02T14:53:25;99529.22;;;3.28;100.00
49459;BME280;35354;51.296;16.924;2023-02-02T14:56:08;99538.66;;;3.29;100.00
49459;BME280;35354;51.296;16.924;2023-02-02T14:58:44;99540.28;;;3.35;100.00
49459;BME280;35354;51.296;16.924;2023-02-02T15:06:36;99555.66;;;3.36;100.00
49459;BME280;35354;51.296;16.924;2023-02-02T15:14:35;99575.28;;;3.43;100.00
49459;BME280;35354;51.296;16.924;2023-02-02T15:19:54;99543.13;;;3.19;99.78
49459;BME280;35354;51.296;16.924;2023-02-02T15:25:23;99581.78;;;3.16;97.46
49459;BME280;35354;51.296;16.924;2023-02-02T15:27:56;99591.16;;;3.20;96.82
49459;BME280;35354;51.296;16.924;2023-02-02T15:30:26;99603.34;;;3.09;96.36
49459;BME280;35354;51.296;16.924;2023-02-02T15:32:54;99582.97;;;2.97;95.84
49459;BME280;35354;51.296;16.924;2023-02-02T15:35:22;99591.56;;;2.96;95.67